Time;durP1;ratioP1;P1;durP2;ratioP2;P2;SDS_P1;SDS_P2;PMS_P1;PMS_P2;Temp;Humidity;BMP_temperature;BMP_pressure;BME280_temperature;BME280_humidity;BME280_pressure;Samples;Min_cycle;Max_cycle;Signal;HPM_P1;HPM_P2
2023/04/13 00:02:16;;;;;;;0.00;0.00;;;6.60;63.60;;;;;;5000201;28;20104;-86
2023/04/13 00:04:42;;;;;;;0.00;0.00;;;6.60;63.70;;;;;;5000935;28;20045;-86
2023/04/13 00:07:15;;;;;;;0.30;0.15;;;6.60;63.40;;;;;;4983887;28;20072;-86
2023/04/13 00:09:44;;;;;;;0.00;0.00;;;6.70;64.30;;;;;;5000416;28;20136;-86
2023/04/13 00:12:09;;;;;;;0.13;0.00;;;6.80;66.80;;;;;;4999887;28;20050;-86
2023/04/13 00:14:35;;;;;;;0.00;0.00;;;6.70;63.10;;;;;;5000261;28;20496;-86
2023/04/13 00:17:04;;;;;;;0.00;0.00;;;6.60;60.90;;;;;;5016443;28;20497;-85
2023/04/13 00:19:33;;;;;;;0.10;0.00;;;6.80;57.10;;;;;;5000022;28;20100;-86
2023/04/13 00:22:00;;;;;;;0.00;0.00;;;6.90;54.50;;;;;;5016061;28;20102;-86
2023/04/13 00:24:25;;;;;;;0.00;0.00;;;6.90;48.30;;;;;;5015982;28;20049;-86
2023/04/13 00:26:53;;;;;;;0.10;0.10;;;7.00;45.70;;;;;;5000523;28;20411;-86
2023/04/13 00:29:19;;;;;;;0.00;0.00;;;7.10;42.70;;;;;;4999827;28;20045;-86
2023/04/13 00:31:45;;;;;;;0.10;0.10;;;7.30;42.40;;;;;;4999273;28;20136;-85
2023/04/13 00:34:11;;;;;;;1.95;0.10;;;7.20;39.90;;;;;;4999260;28;20136;-86
2023/04/13 00:36:36;;;;;;;0.00;0.00;;;7.20;44.30;;;;;;4983143;28;20077;-86
2023/04/13 00:39:02;;;;;;;0.00;0.00;;;7.20;53.30;;;;;;4983237;28;20050;-86
2023/04/13 00:41:32;;;;;;;0.00;0.00;;;7.20;63.90;;;;;;5015704;28;20504;-86
2023/04/13 00:43:59;;;;;;;1.27;0.43;;;7.10;63.80;;;;;;4999674;28;20042;-87
2023/04/13 00:46:27;;;;;;;0.00;0.00;;;7.20;65.10;;;;;;4983246;28;20053;-86
2023/04/13 00:48:54;;;;;;;0.32;0.32;;;7.00;70.80;;;;;;4999194;28;20050;-87
2023/04/13 00:51:20;;;;;;;0.00;0.00;;;6.90;75.90;;;;;;4999240;28;20076;-87
2023/04/13 00:53:50;;;;;;;0.00;0.00;;;6.90;77.30;;;;;;5015519;28;20042;-86
2023/04/13 00:56:16;;;;;;;0.22;0.22;;;6.80;84.20;;;;;;5015372;28;20504;-86
2023/04/13 00:58:41;;;;;;;0.00;0.00;;;6.70;88.20;;;;;;4999052;28;20046;-88
2023/04/13 01:01:07;;;;;;;0.00;0.00;;;7.00;91.30;;;;;;4999450;28;20061;-91
2023/04/13 01:03:33;;;;;;;0.00;0.00;;;6.70;89.50;;;;;;4999787;28;20133;-91
2023/04/13 01:06:26;;;;;;;0.00;0.00;;;7.10;90.80;;;;;;5016074;28;20042;-90
2023/04/13 01:09:29;;;;;;;0.55;0.15;;;6.60;91.80;;;;;;5016045;28;20533;-90
2023/04/13 01:12:05;;;;;;;0.00;0.00;;;6.50;90.50;;;;;;4959561;28;20463;-91
2023/04/13 01:14:40;;;;;;;0.00;0.00;;;6.50;92.40;;;;;;5007428;28;20050;-90
2023/04/13 01:17:13;;;;;;;1.75;0.22;;;6.50;92.80;;;;;;4999722;28;20155;-90
2023/04/13 01:20:00;;;;;;;0.00;0.00;;;6.50;93.90;;;;;;4999267;28;20050;-90
2023/04/13 01:22:31;;;;;;;0.00;0.00;;;6.40;93.60;;;;;;5016402;28;20385;-89
2023/04/13 01:25:21;;;;;;;0.00;0.00;;;6.40;94.60;;;;;;5016086;28;20050;-88
2023/04/13 01:27:49;;;;;;;0.00;0.00;;;6.40;93.70;;;;;;5015140;28;20053;-89
2023/04/13 01:30:20;;;;;;;0.00;0.00;;;6.40;95.20;;;;;;5015729;28;20045;-88
2023/04/13 01:32:48;;;;;;;0.30;0.03;;;6.40;95.40;;;;;;4998367;28;20046;-88
2023/04/13 01:35:14;;;;;;;0.00;0.00;;;6.40;95.60;;;;;;4998531;28;20137;-88
2023/04/13 01:37:43;;;;;;;0.13;0.00;;;6.40;94.90;;;;;;4982287;28;20089;-88
2023/04/13 01:40:11;;;;;;;1.67;0.52;;;6.40;95.50;;;;;;4998621;28;20042;-87
2023/04/13 01:42:41;;;;;;;0.00;0.00;;;6.40;96.10;;;;;;4998272;28;20044;-87
2023/04/13 01:45:10;;;;;;;0.00;0.00;;;6.40;95.70;;;;;;5014772;28;20548;-87
2023/04/13 01:47:39;;;;;;;0.00;0.00;;;6.40;96.90;;;;;;5014713;28;20042;-87
2023/04/13 01:50:21;;;;;;;0.00;0.00;;;6.40;97.30;;;;;;5014422;28;20048;-87
2023/04/13 01:52:49;;;;;;;0.00;0.00;;;6.40;97.20;;;;;;4998382;28;20045;-87
2023/04/13 01:55:14;;;;;;;0.00;0.00;;;6.40;97.10;;;;;;4997938;28;20081;-87
2023/04/13 01:57:46;;;;;;;0.00;0.00;;;6.40;98.40;;;;;;4981981;28;20049;-87
2023/04/13 02:00:13;;;;;;;0.00;0.00;;;6.40;98.50;;;;;;4999132;28;20479;-88
2023/04/13 02:02:39;;;;;;;0.75;0.65;;;6.40;97.80;;;;;;4998268;28;20060;-89
2023/04/13 02:05:08;;;;;;;0.00;0.00;;;6.40;98.80;;;;;;5014557;28;20045;-89
2023/04/13 02:07:34;;;;;;;0.00;0.00;;;6.40;99.80;;;;;;4982354;28;20050;-90
2023/04/13 02:09:59;;;;;;;0.00;0.00;;;6.40;98.70;;;;;;4981843;28;20500;-90
2023/04/13 02:12:25;;;;;;;0.00;0.00;;;6.40;99.10;;;;;;4998456;28;20045;-91
2023/04/13 02:14:51;;;;;;;0.00;0.00;;;6.40;99.30;;;;;;5014509;28;20057;-90
2023/04/13 02:17:17;;;;;;;0.00;0.00;;;6.40;99.20;;;;;;4999015;28;20485;-90
2023/04/13 02:19:45;;;;;;;0.00;0.00;;;6.40;99.90;;;;;;4998323;28;20151;-90
2023/04/13 02:22:11;;;;;;;0.00;0.00;;;6.40;99.90;;;;;;4982318;28;20081;-91
2023/04/13 02:24:37;;;;;;;0.00;0.00;;;6.40;99.70;;;;;;4998290;28;20073;-92
2023/04/13 02:27:03;;;;;;;0.00;0.00;;;6.30;99.90;;;;;;5015481;28;20137;-92
2023/04/13 02:29:29;;;;;;;0.00;0.00;;;6.70;99.90;;;;;;4998259;28;20394;-91
2023/04/13 02:31:54;;;;;;;0.00;0.00;;;6.30;99.90;;;;;;4998087;28;20417;-90
2023/04/13 02:34:22;;;;;;;0.00;0.00;;;6.30;99.90;;;;;;4998772;28;20057;-92
2023/04/13 02:36:48;;;;;;;0.00;0.00;;;6.30;99.90;;;;;;4983151;28;20081;-90
2023/04/13 02:39:14;;;;;;;0.00;0.00;;;6.30;99.90;;;;;;5014483;28;20046;-91
2023/04/13 02:41:41;;;;;;;0.43;0.15;;;6.30;99.90;;;;;;5014500;28;20052;-90
2023/04/13 02:44:07;;;;;;;0.00;0.00;;;6.30;99.90;;;;;;4997844;28;20050;-91
2023/04/13 02:46:33;;;;;;;0.10;0.00;;;6.30;99.90;;;;;;5014351;28;20041;-91
2023/04/13 02:48:59;;;;;;;0.20;0.00;;;6.30;99.90;;;;;;4982281;28;20041;-91
2023/04/13 02:51:26;;;;;;;0.00;0.00;;;6.30;99.90;;;;;;4981696;28;20551;-91
2023/04/13 02:53:54;;;;;;;0.00;0.00;;;6.30;99.90;;;;;;4998238;28;20478;-90
2023/04/13 02:56:21;;;;;;;1.15;0.57;;;6.30;99.90;;;;;;4997612;28;20573;-90
2023/04/13 02:58:47;;;;;;;0.00;0.00;;;6.30;99.90;;;;;;4982383;28;20053;-91
2023/04/13 03:01:13;;;;;;;0.00;0.00;;;6.30;99.90;;;;;;4981459;28;20049;-91
2023/04/13 03:03:40;;;;;;;0.00;0.00;;;6.30;99.90;;;;;;4998527;28;20382;-91
2023/04/13 03:06:06;;;;;;;0.00;0.00;;;6.30;99.90;;;;;;4997952;28;20045;-90
2023/04/13 03:08:32;;;;;;;0.00;0.00;;;6.30;99.90;;;;;;4997301;28;20050;-91
2023/04/13 03:10:58;;;;;;;0.00;0.00;;;6.40;99.90;;;;;;4997634;28;20046;-91
2023/04/13 03:13:24;;;;;;;0.00;0.00;;;6.30;99.90;;;;;;4997278;28;20104;-91
2023/04/13 03:15:49;;;;;;;0.00;0.00;;;6.30;99.90;;;;;;4998283;28;20046;-92
2023/04/13 03:18:15;;;;;;;0.00;0.00;;;6.30;99.90;;;;;;4997595;28;20486;-92
2023/04/13 03:20:42;;;;;;;0.00;0.00;;;6.30;99.90;;;;;;4997681;28;20074;-91
2023/04/13 03:23:08;;;;;;;0.00;0.00;;;6.30;99.90;;;;;;4981405;28;20383;-91
2023/04/13 03:25:34;;;;;;;0.00;0.00;;;6.30;99.90;;;;;;4997648;28;20052;-90
2023/04/13 03:28:00;;;;;;;0.00;0.00;;;6.40;99.90;;;;;;5012904;28;20132;-90
2023/04/13 03:30:26;;;;;;;0.10;0.00;;;6.40;99.90;;;;;;4997191;28;20060;-90
2023/04/13 03:32:57;;;;;;;0.00;0.00;;;6.30;99.90;;;;;;5013143;28;20115;-90
2023/04/13 03:35:23;;;;;;;0.00;0.00;;;6.30;99.90;;;;;;4997310;28;20058;-89
2023/04/13 03:37:49;;;;;;;0.00;0.00;;;6.30;99.90;;;;;;4980454;28;20089;-89
2023/04/13 03:40:15;;;;;;;0.00;0.00;;;6.30;99.90;;;;;;4996618;28;20045;-88
2023/04/13 03:42:40;;;;;;;0.00;0.00;;;6.30;99.90;;;;;;5012897;28;20050;-88
2023/04/13 03:45:07;;;;;;;0.00;0.00;;;6.30;99.90;;;;;;4996073;28;20149;-88
2023/04/13 03:47:33;;;;;;;0.00;0.00;;;6.40;99.90;;;;;;4980711;28;20145;-87
2023/04/13 03:49:58;;;;;;;0.00;0.00;;;6.40;99.90;;;;;;4997320;28;20493;-87
2023/04/13 03:52:24;;;;;;;0.00;0.00;;;6.40;99.90;;;;;;4980142;28;20076;-86
2023/04/13 03:54:50;;;;;;;0.00;0.00;;;6.40;99.90;;;;;;4996603;28;20096;-86
2023/04/13 03:57:15;;;;;;;0.00;0.00;;;6.40;99.90;;;;;;4980176;28;20042;-87
2023/04/13 03:59:41;;;;;;;0.00;0.00;;;6.40;99.90;;;;;;4996561;28;20049;-86
2023/04/13 04:02:07;;;;;;;0.00;0.00;;;6.50;99.90;;;;;;4980957;28;20340;-86
2023/04/13 04:04:33;;;;;;;0.00;0.00;;;6.50;99.90;;;;;;4997142;28;20046;-86
2023/04/13 04:06:59;;;;;;;0.08;0.00;;;6.50;99.90;;;;;;4996366;28;20521;-86
2023/04/13 04:09:25;;;;;;;0.00;0.00;;;6.50;99.90;;;;;;4996508;28;20056;-86
2023/04/13 04:11:50;;;;;;;0.00;0.00;;;6.50;99.90;;;;;;4980824;28;20370;-86
2023/04/13 04:14:17;;;;;;;0.00;0.00;;;6.50;99.90;;;;;;4995976;28;20096;-85
2023/04/13 04:16:42;;;;;;;0.40;0.00;;;6.50;99.90;;;;;;4980910;28;20072;-86
2023/04/13 04:19:08;;;;;;;0.00;0.00;;;6.60;99.90;;;;;;5012691;28;20132;-86
2023/04/13 04:21:34;;;;;;;0.00;0.00;;;6.60;99.90;;;;;;4996124;28;20046;-86
2023/04/13 04:24:01;;;;;;;0.00;0.00;;;6.60;99.90;;;;;;4996168;28;20121;-85
2023/04/13 04:26:28;;;;;;;0.10;0.10;;;6.60;99.90;;;;;;4996043;28;20054;-86
2023/04/13 04:29:00;;;;;;;0.00;0.00;;;6.60;99.90;;;;;;4996084;28;20176;-86
2023/04/13 04:31:33;;;;;;;0.00;0.00;;;6.60;99.90;;;;;;4996465;28;20057;-86
2023/04/13 04:34:00;;;;;;;0.13;0.13;;;6.60;99.90;;;;;;4995971;28;20466;-86
2023/04/13 04:36:26;;;;;;;0.00;0.00;;;6.60;99.90;;;;;;4995645;28;20512;-86
2023/04/13 04:38:56;;;;;;;0.00;0.00;;;6.60;99.90;;;;;;5013435;28;20050;-86
2023/04/13 04:41:24;;;;;;;0.00;0.00;;;6.60;99.90;;;;;;5000256;28;20050;-86
2023/04/13 04:43:49;;;;;;;0.00;0.00;;;6.60;99.90;;;;;;4999421;28;20108;-86
2023/04/13 04:46:15;;;;;;;0.00;0.00;;;6.60;99.90;;;;;;4999361;28;20478;-86
2023/04/13 04:48:41;;;;;;;0.08;0.08;;;6.50;99.90;;;;;;5015501;28;20096;-86
2023/04/13 04:51:07;;;;;;;0.00;0.00;;;6.50;99.90;;;;;;5015799;28;20060;-86
2023/04/13 04:53:33;;;;;;;0.10;0.10;;;6.40;99.90;;;;;;5015400;28;20050;-86
2023/04/13 04:55:59;;;;;;;0.00;0.00;;;6.40;99.90;;;;;;5015551;28;20049;-85
2023/04/13 04:58:25;;;;;;;0.00;0.00;;;6.30;99.90;;;;;;4999112;28;20521;-86
2023/04/13 05:00:52;;;;;;;0.00;0.00;;;6.30;99.90;;;;;;4999329;28;20046;-86
2023/04/13 05:03:18;;;;;;;0.00;0.00;;;6.30;99.90;;;;;;4982866;28;20078;-86
2023/04/13 05:05:43;;;;;;;0.00;0.00;;;6.20;99.90;;;;;;4982973;28;20494;-86
2023/04/13 05:08:10;;;;;;;0.00;0.00;;;6.20;99.90;;;;;;4999186;28;20046;-86
2023/04/13 05:10:42;;;;;;;0.00;0.00;;;6.20;99.90;;;;;;4998989;28;20046;-85
2023/04/13 05:13:08;;;;;;;0.00;0.00;;;6.20;99.90;;;;;;5015075;28;20085;-85
2023/04/13 05:15:34;;;;;;;0.00;0.00;;;6.10;99.90;;;;;;4998864;28;20096;-85
2023/04/13 05:18:03;;;;;;;0.00;0.00;;;6.10;99.90;;;;;;4982484;28;20046;-86
2023/04/13 05:20:29;;;;;;;0.00;0.00;;;6.70;99.90;;;;;;4982743;28;20398;-86
2023/04/13 05:22:54;;;;;;;0.00;0.00;;;6.20;99.90;;;;;;4999345;28;20041;-85
2023/04/13 05:25:20;;;;;;;0.08;0.00;;;6.20;99.90;;;;;;4982780;28;20065;-85
2023/04/13 05:27:46;;;;;;;0.00;0.00;;;6.20;99.90;;;;;;4998664;28;20501;-86
2023/04/13 05:30:12;;;;;;;0.00;0.00;;;6.10;99.90;;;;;;4982490;28;20048;-85
2023/04/13 05:32:38;;;;;;;0.00;0.00;;;6.20;99.90;;;;;;4982136;28;20484;-85
2023/04/13 05:35:04;;;;;;;0.00;0.00;;;6.30;99.90;;;;;;4998523;28;20053;-86
2023/04/13 05:37:30;;;;;;;0.00;0.00;;;6.30;99.90;;;;;;4983160;28;20046;-85
2023/04/13 05:39:57;;;;;;;0.00;0.00;;;6.30;99.90;;;;;;4998328;28;20045;-85
2023/04/13 05:42:23;;;;;;;0.17;0.17;;;6.40;99.90;;;;;;4982548;28;20064;-85
2023/04/13 05:44:49;;;;;;;0.00;0.00;;;6.40;99.90;;;;;;4982014;28;20054;-85
2023/04/13 05:47:20;;;;;;;0.00;0.00;;;6.40;99.90;;;;;;4998013;28;20045;-86
2023/04/13 05:49:46;;;;;;;0.00;0.00;;;6.50;99.90;;;;;;4997936;28;20053;-86
2023/04/13 05:52:11;;;;;;;3.17;1.25;;;6.50;99.90;;;;;;4998416;28;20050;-86
2023/04/13 05:54:37;;;;;;;0.00;0.00;;;6.70;99.90;;;;;;4997779;28;20042;-85
2023/04/13 05:57:03;;;;;;;0.00;0.00;;;6.80;99.90;;;;;;4998020;28;20058;-86
2023/04/13 05:59:28;;;;;;;0.00;0.00;;;6.90;99.90;;;;;;4997982;28;20076;-86
2023/04/13 06:01:58;;;;;;;0.00;0.00;;;7.00;99.90;;;;;;4982084;28;20084;-87
2023/04/13 06:04:25;;;;;;;0.00;0.00;;;7.00;99.90;;;;;;4982296;28;20141;-87
2023/04/13 06:06:51;;;;;;;0.00;0.00;;;7.00;99.90;;;;;;4998122;28;20046;-86
2023/04/13 06:09:17;;;;;;;0.00;0.00;;;7.10;99.90;;;;;;4981599;28;20118;-86
2023/04/13 06:11:43;;;;;;;2.28;0.65;;;7.10;99.90;;;;;;4998197;28;20053;-87
2023/04/13 06:14:09;;;;;;;0.00;0.00;;;7.10;99.90;;;;;;5013392;28;20056;-87
2023/04/13 06:16:34;;;;;;;0.00;0.00;;;7.00;99.90;;;;;;4981547;28;20046;-86
2023/04/13 06:19:00;;;;;;;0.00;0.00;;;7.10;99.90;;;;;;4997445;28;20049;-86
2023/04/13 06:21:27;;;;;;;0.00;0.00;;;7.10;99.90;;;;;;4997395;28;20050;-87
2023/04/13 06:23:53;;;;;;;0.00;0.00;;;7.10;99.90;;;;;;4998147;28;20045;-86
2023/04/13 06:26:18;;;;;;;0.00;0.00;;;7.10;99.90;;;;;;4997483;28;20044;-83
2023/04/13 06:28:47;;;;;;;0.00;0.00;;;7.10;99.90;;;;;;4997667;28;20085;-90
2023/04/13 06:31:19;;;;;;;0.00;0.00;;;7.20;99.90;;;;;;4997432;28;20053;-89
2023/04/13 06:33:45;;;;;;;0.30;0.03;;;7.20;99.90;;;;;;4998301;28;20101;-87
2023/04/13 06:36:11;;;;;;;0.20;0.20;;;7.30;99.90;;;;;;4998298;28;20046;-85
2023/04/13 06:38:37;;;;;;;1.23;0.68;;;7.60;99.90;;;;;;4998253;28;20133;-87
2023/04/13 06:41:03;;;;;;;0.00;0.00;;;7.90;99.90;;;;;;4997201;28;20477;-87
2023/04/13 06:43:29;;;;;;;0.32;0.03;;;7.90;99.90;;;;;;4997301;28;20054;-87
2023/04/13 06:45:59;;;;;;;0.00;0.00;;;8.00;99.90;;;;;;4997206;28;20394;-87
2023/04/13 06:48:25;;;;;;;0.00;0.00;;;7.90;99.90;;;;;;4980902;28;20441;-88
2023/04/13 06:50:51;;;;;;;0.00;0.00;;;8.20;99.90;;;;;;5013458;28;20049;-86
2023/04/13 06:53:17;;;;;;;0.08;0.00;;;8.60;99.90;;;;;;4997245;28;20053;-87
2023/04/13 06:55:43;;;;;;;0.10;0.10;;;9.10;99.90;;;;;;4997631;28;20046;-86
2023/04/13 06:58:10;;;;;;;0.10;0.10;;;9.30;98.60;;;;;;4981076;28;20050;-86
2023/04/13 07:00:36;;;;;;;0.00;0.00;;;9.30;97.60;;;;;;4996701;28;20136;-86
2023/04/13 07:03:02;;;;;;;0.10;0.00;;;9.30;97.00;;;;;;4996297;28;20058;-86
2023/04/13 07:05:28;;;;;;;0.00;0.00;;;9.30;96.50;;;;;;4996739;28;20494;-85
2023/04/13 07:07:55;;;;;;;0.00;0.00;;;9.30;95.70;;;;;;4997221;28;20049;-84
2023/04/13 07:10:21;;;;;;;0.03;0.03;;;9.20;95.60;;;;;;4980765;28;20215;-84
2023/04/13 07:12:47;;;;;;;0.00;0.00;;;9.10;95.80;;;;;;4996695;28;20129;-84
2023/04/13 07:15:14;;;;;;;0.00;0.00;;;9.00;96.00;;;;;;4996987;28;20393;-86
2023/04/13 07:17:40;;;;;;;0.25;0.03;;;8.90;96.50;;;;;;4996952;28;20057;-86
2023/04/13 07:20:06;;;;;;;0.00;0.00;;;8.90;96.90;;;;;;4996592;28;20049;-85
2023/04/13 07:22:34;;;;;;;0.00;0.00;;;8.80;96.30;;;;;;4980476;28;20504;-85
2023/04/13 07:25:00;;;;;;;0.10;0.10;;;8.80;96.10;;;;;;4996772;28;20042;-85
2023/04/13 07:27:26;;;;;;;0.10;0.10;;;8.70;96.70;;;;;;4980333;28;20046;-85
2023/04/13 07:29:54;;;;;;;0.00;0.00;;;8.80;97.30;;;;;;4996535;28;20077;-85
2023/04/13 07:32:36;;;;;;;;;;;;;;;;;;;;;
2023/04/13 07:35:22;;;;;;;0.00;0.00;;;8.90;96.60;;;;;;5000193;28;20053;-93
2023/04/13 07:37:48;;;;;;;0.00;0.00;;;9.00;95.10;;;;;;4996719;28;20046;-87
2023/04/13 07:40:15;;;;;;;0.00;0.00;;;9.00;94.90;;;;;;5012842;28;20121;-85
2023/04/13 07:42:43;;;;;;;0.47;0.47;;;9.20;95.70;;;;;;5013060;28;20046;-86
2023/04/13 07:45:09;;;;;;;0.00;0.00;;;9.40;96.00;;;;;;4996636;28;20049;-86
2023/04/13 07:47:41;;;;;;;0.00;0.00;;;9.50;93.00;;;;;;4996968;28;20045;-94
2023/04/13 07:53:19;;;;;;;0.00;0.00;;;9.30;92.90;;;;;;5002519;28;20054;-86
2023/04/13 07:55:44;;;;;;;0.15;0.15;;;9.20;93.90;;;;;;4996305;28;20375;-85
2023/04/13 07:58:10;;;;;;;0.00;0.00;;;9.10;93.80;;;;;;4996062;28;20046;-85
2023/04/13 08:00:36;;;;;;;0.05;0.05;;;9.20;94.40;;;;;;4980116;28;20052;-85
2023/04/13 08:03:01;;;;;;;0.00;0.00;;;9.20;93.30;;;;;;4996234;28;20046;-85
2023/04/13 08:05:27;;;;;;;0.00;0.00;;;9.30;93.00;;;;;;4996276;28;20133;-86
2023/04/13 08:07:53;;;;;;;0.00;0.00;;;9.20;92.90;;;;;;4981024;28;20042;-88
2023/04/13 08:10:27;;;;;;;0.28;0.15;;;9.30;93.20;;;;;;4996430;28;20103;-89
2023/04/13 08:13:03;;;;;;;0.13;0.13;;;9.20;93.10;;;;;;4999179;28;20381;-90
2023/04/13 08:15:49;;;;;;;10.02;0.65;;;9.30;93.50;;;;;;4984839;28;20042;-92
2023/04/13 08:18:27;;;;;;;0.00;0.00;;;9.40;93.90;;;;;;4984105;28;20072;-90
2023/04/13 08:20:56;;;;;;;0.00;0.00;;;9.50;92.80;;;;;;5001097;28;20418;-84
2023/04/13 08:23:26;;;;;;;0.00;0.00;;;9.60;92.60;;;;;;4984672;28;20049;-93
2023/04/13 08:25:52;;;;;;;0.00;0.00;;;9.60;92.00;;;;;;4999987;28;20551;-84
2023/04/13 08:28:18;;;;;;;0.28;0.00;;;9.50;92.70;;;;;;4999402;28;20403;-84
2023/04/13 08:30:44;;;;;;;0.00;0.00;;;9.40;93.90;;;;;;4999357;28;20041;-85
2023/04/13 08:33:10;;;;;;;5.47;0.32;;;9.40;94.70;;;;;;4982887;28;20054;-83
2023/04/13 08:35:38;;;;;;;0.20;0.00;;;9.40;94.70;;;;;;4999477;28;20171;-87
2023/04/13 08:38:05;;;;;;;0.00;0.00;;;9.40;94.10;;;;;;4999649;28;20056;-85
2023/04/13 08:40:37;;;;;;;0.00;0.00;;;9.40;94.20;;;;;;5015750;28;20054;-85
2023/04/13 08:43:03;;;;;;;0.00;0.00;;;9.40;94.70;;;;;;5015910;28;20048;-84
2023/04/13 08:45:30;;;;;;;0.00;0.00;;;9.30;94.40;;;;;;4999232;28;20053;-84
2023/04/13 08:48:02;;;;;;;0.10;0.10;;;9.30;95.20;;;;;;4983523;28;20046;-85
2023/04/13 08:50:28;;;;;;;0.00;0.00;;;9.20;94.80;;;;;;4999440;28;20083;-84
2023/04/13 08:52:54;;;;;;;0.00;0.00;;;9.10;95.80;;;;;;4982855;28;20052;-83
2023/04/13 08:55:20;;;;;;;0.35;0.35;;;9.00;96.90;;;;;;4999094;28;20544;-83
2023/04/13 08:57:48;;;;;;;0.03;0.03;;;8.90;98.60;;;;;;4999268;28;20477;-84
2023/04/13 09:00:16;;;;;;;1.27;0.35;;;8.90;97.50;;;;;;5015385;28;20053;-85
2023/04/13 09:02:47;;;;;;;0.13;0.13;;;8.80;97.70;;;;;;4999078;28;20398;-85
2023/04/13 09:05:19;;;;;;;0.00;0.00;;;8.90;98.10;;;;;;4998754;28;20057;-84
2023/04/13 09:07:52;;;;;;;0.32;0.00;;;9.10;98.30;;;;;;5016130;28;20100;-87
2023/04/13 09:10:22;;;;;;;0.00;0.00;;;9.60;98.90;;;;;;5015561;28;20112;-86
2023/04/13 09:12:51;;;;;;;0.10;0.08;;;9.70;96.80;;;;;;5014917;28;20045;-86
2023/04/13 09:15:17;;;;;;;0.00;0.00;;;9.80;96.10;;;;;;4982549;28;20049;-87
2023/04/13 09:17:49;;;;;;;0.00;0.00;;;9.80;93.80;;;;;;4999054;28;20050;-88
2023/04/13 09:20:21;;;;;;;0.00;0.00;;;9.70;94.20;;;;;;4999662;28;20056;-85
2023/04/13 09:22:48;;;;;;;0.00;0.00;;;9.70;94.70;;;;;;4998377;28;20136;-86
2023/04/13 09:25:24;;;;;;;0.00;0.00;;;9.70;94.80;;;;;;4998220;28;20042;-87
2023/04/13 09:27:55;;;;;;;0.00;0.00;;;9.80;94.70;;;;;;4998857;28;20136;-87
2023/04/13 09:30:23;;;;;;;0.00;0.00;;;9.70;94.00;;;;;;4982628;28;20096;-87
2023/04/13 09:33:03;;;;;;;0.00;0.00;;;9.70;94.10;;;;;;5014056;28;20137;-87
2023/04/13 09:35:34;;;;;;;0.00;0.00;;;9.70;95.50;;;;;;4983457;28;20045;-88
2023/04/13 09:37:59;;;;;;;0.00;0.00;;;9.90;96.10;;;;;;4998629;28;20046;-83
2023/04/13 09:40:31;;;;;;;0.00;0.00;;;10.30;95.60;;;;;;4982168;28;20053;-86
2023/04/13 09:43:03;;;;;;;0.00;0.00;;;10.40;91.80;;;;;;4983549;28;20045;-85
2023/04/13 09:45:43;;;;;;;0.03;0.03;;;10.40;93.20;;;;;;4998101;28;20046;-86
2023/04/13 09:48:20;;;;;;;0.20;0.00;;;10.40;93.10;;;;;;5014043;28;20081;-86
2023/04/13 09:51:04;;;;;;;0.00;0.00;;;10.40;93.50;;;;;;4982032;28;20140;-84
2023/04/13 09:53:45;;;;;;;0.00;0.00;;;10.20;93.70;;;;;;4998079;28;20389;-84
2023/04/13 09:56:11;;;;;;;0.00;0.00;;;10.10;94.00;;;;;;4998860;28;20057;-84
2023/04/13 09:58:45;;;;;;;0.00;0.00;;;10.10;93.80;;;;;;4997955;28;20509;-84
2023/04/13 10:01:13;;;;;;;3.50;0.60;;;10.00;92.70;;;;;;5014360;28;20046;-84
2023/04/13 10:03:40;;;;;;;0.10;0.10;;;9.90;91.60;;;;;;4998306;28;20054;-84
2023/04/13 10:06:07;;;;;;;0.00;0.00;;;9.90;92.30;;;;;;4997951;28;20053;-83
2023/04/13 10:08:36;;;;;;;0.00;0.00;;;10.10;93.00;;;;;;4982440;28;20424;-83
2023/04/13 10:11:03;;;;;;;0.00;0.00;;;10.60;94.40;;;;;;4997805;28;20478;-84
2023/04/13 10:13:48;;;;;;;0.00;0.00;;;11.10;92.20;;;;;;4998466;28;20092;-83
2023/04/13 10:16:26;;;;;;;;;;;11.50;90.70;;;;;;4997900;28;20112;-84
2023/04/13 10:19:00;;;;;;;0.45;0.15;;;11.90;92.00;;;;;;4997557;28;19921;-83
2023/04/13 10:21:38;;;;;;;0.00;0.00;;;12.20;86.70;;;;;;4998493;28;20081;-83
2023/04/13 10:24:05;;;;;;;0.00;0.00;;;12.40;76.00;;;;;;4997582;28;20482;-83
2023/04/13 10:26:38;;;;;;;0.55;0.00;;;12.80;79.70;;;;;;4982137;28;20049;-83
2023/04/13 10:29:05;;;;;;;0.00;0.00;;;12.90;63.40;;;;;;5014589;28;20045;-83
2023/04/13 10:31:45;;;;;;;0.00;0.00;;;12.80;60.80;;;;;;5013527;28;20056;-83
2023/04/13 10:34:29;;;;;;;0.00;0.00;;;12.70;65.90;;;;;;4997041;28;20548;-83
2023/04/13 10:37:02;;;;;;;0.10;0.10;;;12.40;55.10;;;;;;5012779;28;20042;-83
2023/04/13 10:39:37;;;;;;;0.00;0.00;;;12.10;58.60;;;;;;4997580;28;20104;-84
2023/04/13 10:42:05;;;;;;;;;;;11.80;63.40;;;;;;4998518;28;20046;-85
2023/04/13 10:44:50;;;;;;;0.00;0.00;;;11.60;68.90;;;;;;4997220;28;19922;-85
2023/04/13 10:47:21;;;;;;;0.00;0.00;;;11.60;66.90;;;;;;4997505;28;20041;-85
2023/04/13 10:49:48;;;;;;;0.75;0.50;;;11.40;61.50;;;;;;5013769;28;20045;-84
2023/04/13 10:52:15;;;;;;;0.00;0.00;;;11.40;64.00;;;;;;4996792;28;20197;-85
2023/04/13 10:54:41;;;;;;;0.00;0.00;;;11.40;63.10;;;;;;5013373;28;20133;-84
2023/04/13 10:57:09;;;;;;;0.10;0.10;;;11.50;68.40;;;;;;5013178;28;20041;-85
2023/04/13 10:59:51;;;;;;;0.00;0.00;;;11.60;61.20;;;;;;5012851;28;20045;-87
2023/04/13 11:02:17;;;;;;;0.00;0.00;;;11.50;52.60;;;;;;4981512;28;20108;-84
2023/04/13 11:04:45;;;;;;;0.00;0.00;;;11.30;49.70;;;;;;4996617;28;20041;-84
2023/04/13 11:07:14;;;;;;;0.00;0.00;;;11.20;53.40;;;;;;4996739;28;20054;-84
2023/04/13 11:09:42;;;;;;;0.00;0.00;;;11.10;55.80;;;;;;5013926;28;20363;-84
2023/04/13 11:12:11;;;;;;;0.00;0.00;;;11.00;66.10;;;;;;4996674;28;20050;-84
2023/04/13 11:14:37;;;;;;;0.00;0.00;;;11.10;60.40;;;;;;4996544;28;20046;-84
2023/04/13 11:17:11;;;;;;;0.05;0.05;;;11.30;60.20;;;;;;4996924;28;20057;-85
2023/04/13 11:19:54;;;;;;;0.00;0.00;;;11.40;60.20;;;;;;4997527;28;20050;-84
2023/04/13 11:22:22;;;;;;;6.72;0.20;;;11.50;60.30;;;;;;5013281;28;20042;-85
2023/04/13 11:24:49;;;;;;;0.05;0.00;;;11.60;59.50;;;;;;4997404;28;20057;-84
2023/04/13 11:27:23;;;;;;;0.20;0.20;;;11.80;60.30;;;;;;4980269;28;20049;-84
2023/04/13 11:29:58;;;;;;;0.00;0.00;;;11.90;55.80;;;;;;4996203;28;20053;-84
2023/04/13 11:32:24;;;;;;;0.00;0.00;;;12.00;50.00;;;;;;5012947;28;20085;-84
2023/04/13 11:34:51;;;;;;;0.00;0.00;;;11.90;49.20;;;;;;4996158;28;20050;-84
2023/04/13 11:37:18;;;;;;;2.28;0.55;;;11.80;42.30;;;;;;5012839;28;20054;-84
2023/04/13 11:39:44;;;;;;;0.00;0.00;;;11.70;39.10;;;;;;4980510;28;20081;-84
2023/04/13 11:42:11;;;;;;;0.17;0.00;;;11.70;38.80;;;;;;4996094;28;20045;-84
2023/04/13 11:44:37;;;;;;;0.35;0.20;;;11.70;40.90;;;;;;4996693;28;20430;-84
2023/04/13 11:47:04;;;;;;;0.00;0.00;;;11.80;43.40;;;;;;5013546;28;20053;-84
2023/04/13 11:49:31;;;;;;;0.40;0.40;;;11.90;53.30;;;;;;5016744;28;20056;-84
2023/04/13 11:52:01;;;;;;;0.38;0.20;;;12.00;49.50;;;;;;4984519;28;20085;-83
2023/04/13 11:54:31;;;;;;;0.00;0.00;;;11.90;43.00;;;;;;5017215;28;20377;-84
2023/04/13 11:56:57;;;;;;;0.03;0.03;;;11.70;43.80;;;;;;5000313;28;20053;-84
2023/04/13 11:59:24;;;;;;;0.20;0.20;;;11.60;45.10;;;;;;4984872;28;20133;-84
2023/04/13 12:01:50;;;;;;;0.00;0.00;;;11.50;43.70;;;;;;5000464;28;20141;-84
2023/04/13 12:04:17;;;;;;;0.00;0.00;;;11.50;53.00;;;;;;4999918;28;20460;-84
2023/04/13 12:06:46;;;;;;;0.15;0.10;;;11.50;49.90;;;;;;5000107;28;20493;-84
2023/04/13 12:09:12;;;;;;;1.27;0.50;;;11.80;52.50;;;;;;4984243;28;20053;-84
2023/04/13 12:11:39;;;;;;;0.00;0.00;;;12.10;51.60;;;;;;5016357;28;20081;-84
2023/04/13 12:14:05;;;;;;;0.05;0.05;;;12.10;47.70;;;;;;5016040;28;20054;-83
2023/04/13 12:16:33;;;;;;;0.28;0.28;;;12.10;45.60;;;;;;4999973;28;20050;-84
2023/04/13 12:19:06;;;;;;;0.13;0.08;;;12.00;39.00;;;;;;5000016;28;20134;-84
2023/04/13 12:21:32;;;;;;;0.00;0.00;;;12.10;40.80;;;;;;4999972;28;20046;-84
2023/04/13 12:23:59;;;;;;;0.00;0.00;;;12.20;28.70;;;;;;5000061;28;20046;-84
2023/04/13 12:26:36;;;;;;;0.25;0.05;;;12.30;35.10;;;;;;4983472;28;20085;-84
2023/04/13 12:29:06;;;;;;;0.00;0.00;;;12.50;29.00;;;;;;5016828;28;20081;-84
2023/04/13 12:31:34;;;;;;;1.55;0.85;;;12.70;34.10;;;;;;5000423;28;20053;-84
2023/04/13 12:34:01;;;;;;;0.00;0.00;;;12.70;26.20;;;;;;4999476;28;20056;-83
2023/04/13 12:36:30;;;;;;;0.30;0.28;;;12.70;26.00;;;;;;5015558;28;20053;-84
2023/04/13 12:38:57;;;;;;;0.00;0.00;;;12.80;22.40;;;;;;4983522;28;20046;-84
2023/04/13 12:41:23;;;;;;;3.33;0.22;;;12.80;22.60;;;;;;4983522;28;20056;-84
2023/04/13 12:43:49;;;;;;;1.48;0.63;;;12.70;15.30;;;;;;4999430;28;20049;-84
2023/04/13 12:46:16;;;;;;;0.00;0.00;;;12.60;17.00;;;;;;4983492;28;20397;-84
2023/04/13 12:48:41;;;;;;;0.15;0.10;;;12.60;15.10;;;;;;4999476;28;20147;-84
2023/04/13 12:51:07;;;;;;;0.00;0.00;;;12.70;16.50;;;;;;5016419;28;20136;-84
2023/04/13 12:53:36;;;;;;;0.00;0.00;;;12.80;19.90;;;;;;5015415;28;20052;-84
2023/04/13 12:56:02;;;;;;;0.28;0.20;;;12.80;17.90;;;;;;4982496;28;20046;-83
2023/04/13 12:58:28;;;;;;;0.00;0.00;;;12.80;9.40;;;;;;4998923;28;20145;-84
2023/04/13 13:00:54;;;;;;;0.13;0.13;;;12.80;13.90;;;;;;4998307;28;20057;-85
2023/04/13 13:03:20;;;;;;;0.00;0.00;;;12.80;14.00;;;;;;4982845;28;20057;-84
2023/04/13 13:05:46;;;;;;;0.00;0.00;;;12.70;4.50;;;;;;4982819;28;20050;-83